Time;durP1;ratioP1;P1;durP2;ratioP2;P2;SDS_P1;SDS_P2;PMS_P1;PMS_P2;Temp;Humidity;BMP_temperature;BMP_pressure;BME280_temperature;BME280_humidity;BME280_pressure;Samples;Min_cycle;Max_cycle;Signal;HPM_P1;HPM_P2
2021/03/21 00:01:36;;;;;;;16.85;13.73;;;1.00;99.90;;;;;;5024697;28;20060;-68
2021/03/21 00:04:03;;;;;;;14.07;12.68;;;1.00;99.90;;;;;;5033321;28;20124;-67
2021/03/21 00:06:30;;;;;;;18.40;13.02;;;1.00;99.90;;;;;;5035293;28;20042;-68
2021/03/21 00:08:57;;;;;;;15.75;13.65;;;1.00;99.90;;;;;;5035833;28;20047;-68
2021/03/21 00:11:24;;;;;;;14.35;12.73;;;1.00;99.90;;;;;;5027884;28;20408;-68
2021/03/21 00:13:50;;;;;;;14.70;13.15;;;1.00;99.90;;;;;;5028235;28;20055;-69
2021/03/21 00:16:17;;;;;;;16.17;13.50;;;1.00;99.90;;;;;;5033760;28;20140;-69
2021/03/21 00:18:44;;;;;;;14.18;12.63;;;1.00;99.90;;;;;;5035245;28;20061;-68
2021/03/21 00:21:13;;;;;;;15.23;12.75;;;1.00;99.90;;;;;;5027839;28;20076;-69
2021/03/21 00:23:40;;;;;;;15.38;13.13;;;1.00;99.90;;;;;;5035486;28;20049;-69
2021/03/21 00:26:08;;;;;;;14.15;12.70;;;1.00;99.90;;;;;;5033519;28;20041;-69
2021/03/21 00:28:36;;;;;;;16.02;13.05;;;1.00;99.90;;;;;;5029924;28;20128;-69
2021/03/21 00:31:04;;;;;;;17.17;13.50;;;1.00;99.90;;;;;;5030871;28;20733;-68
2021/03/21 00:33:35;;;;;;;14.85;13.23;;;1.10;99.90;;;;;;5034499;28;20056;-68
2021/03/21 00:36:04;;;;;;;15.82;13.35;;;1.10;99.90;;;;;;5034474;28;20384;-68
2021/03/21 00:38:43;;;;;;;15.35;13.43;;;1.10;99.90;;;;;;5035425;28;20416;-68
2021/03/21 00:41:12;;;;;;;15.05;13.45;;;1.10;99.90;;;;;;5033663;28;20053;-68
2021/03/21 00:43:39;;;;;;;17.65;14.20;;;1.00;99.90;;;;;;5023791;28;20045;-68
2021/03/21 00:46:06;;;;;;;14.90;13.38;;;1.00;99.90;;;;;;5031793;28;20076;-69
2021/03/21 00:48:37;;;;;;;14.68;13.18;;;1.00;99.90;;;;;;5031050;28;20162;-69
2021/03/21 00:51:04;;;;;;;17.30;13.50;;;1.00;99.90;;;;;;5032216;28;20168;-69
2021/03/21 00:53:31;;;;;;;16.15;13.20;;;1.00;99.90;;;;;;5034775;28;20045;-69
2021/03/21 00:55:58;;;;;;;14.43;12.13;;;1.00;99.90;;;;;;5034147;28;20061;-66
2021/03/21 00:58:25;;;;;;;16.40;14.18;;;1.00;99.90;;;;;;5033500;28;20050;-67
2021/03/21 01:00:55;;;;;;;14.07;12.55;;;1.10;99.90;;;;;;5028787;28;20046;-68
2021/03/21 01:03:22;;;;;;;16.83;12.90;;;1.10;99.90;;;;;;5030769;28;20133;-69
2021/03/21 01:05:54;;;;;;;15.90;13.10;;;1.10;99.90;;;;;;5033598;28;20045;-68
2021/03/21 01:08:29;;;;;;;15.40;13.15;;;1.10;99.90;;;;;;5027239;28;20049;-69
2021/03/21 01:11:00;;;;;;;14.93;12.88;;;1.10;99.90;;;;;;5032972;28;20080;-68
2021/03/21 01:13:27;;;;;;;16.60;13.00;;;1.10;99.90;;;;;;5033632;28;20162;-69
2021/03/21 01:15:54;;;;;;;17.48;13.57;;;1.10;99.90;;;;;;5030862;28;20053;-69
2021/03/21 01:18:27;;;;;;;14.82;12.85;;;1.10;99.90;;;;;;5033625;28;20049;-69
2021/03/21 01:20:54;;;;;;;15.38;12.65;;;1.10;99.90;;;;;;5033707;28;20053;-69
2021/03/21 01:23:21;;;;;;;16.50;12.73;;;1.10;99.90;;;;;;5028549;28;20042;-69
2021/03/21 01:25:48;;;;;;;14.93;12.63;;;1.10;99.90;;;;;;5033191;28;20050;-68
2021/03/21 01:28:25;;;;;;;15.00;13.07;;;1.10;99.90;;;;;;5031383;28;20045;-69
2021/03/21 01:30:54;;;;;;;13.85;12.27;;;1.20;99.90;;;;;;5025851;28;20069;-68
2021/03/21 01:33:21;;;;;;;14.13;12.63;;;1.10;99.90;;;;;;5032953;28;20463;-69
2021/03/21 01:35:49;;;;;;;14.18;12.77;;;1.10;99.90;;;;;;5033451;28;20521;-68
2021/03/21 01:38:17;;;;;;;16.33;12.75;;;1.10;99.90;;;;;;5032981;28;20041;-68
2021/03/21 01:40:46;;;;;;;14.10;12.60;;;1.10;99.90;;;;;;5032609;28;20057;-68
2021/03/21 01:43:14;;;;;;;14.10;12.60;;;1.30;99.90;;;;;;5032903;28;20041;-68
2021/03/21 01:45:42;;;;;;;13.75;12.35;;;1.30;99.90;;;;;;5031613;28;20084;-68
2021/03/21 01:48:15;;;;;;;14.00;12.02;;;1.30;99.90;;;;;;5030040;28;20053;-69
2021/03/21 01:50:54;;;;;;;13.40;12.00;;;1.20;99.90;;;;;;5027368;28;20084;-69
2021/03/21 01:53:22;;;;;;;14.23;12.80;;;1.20;99.90;;;;;;5033245;28;20041;-68
2021/03/21 01:55:50;;;;;;;15.13;12.60;;;1.20;99.90;;;;;;5026600;28;20140;-68
2021/03/21 01:58:18;;;;;;;15.88;13.02;;;1.20;99.90;;;;;;5027659;28;20462;-67
2021/03/21 02:00:46;;;;;;;14.05;12.55;;;1.20;99.90;;;;;;5029296;28;20544;-68
2021/03/21 02:03:13;;;;;;;17.65;12.45;;;1.20;99.90;;;;;;5029583;28;20053;-68
2021/03/21 02:05:41;;;;;;;14.27;12.63;;;1.30;99.90;;;;;;5030828;28;20056;-68
2021/03/21 02:08:38;;;;;;;14.43;12.75;;;1.30;99.90;;;;;;5032495;28;20049;-68
2021/03/21 02:11:11;;;;;;;13.60;12.02;;;1.30;99.90;;;;;;5028493;28;20139;-69
2021/03/21 02:13:56;;;;;;;13.93;11.13;;;1.30;99.90;;;;;;5023945;28;20052;-68
2021/03/21 02:16:35;;;;;;;13.60;11.93;;;1.30;99.90;;;;;;5033680;28;20057;-68
2021/03/21 02:19:35;;;;;;;13.32;11.80;;;1.30;99.90;;;;;;5018140;28;20118;-69
2021/03/21 02:22:11;;;;;;;13.40;11.85;;;1.30;99.90;;;;;;5021391;28;20396;-67
2021/03/21 02:24:50;;;;;;;13.82;12.23;;;1.30;99.90;;;;;;5029638;28;20488;-68
2021/03/21 02:27:39;;;;;;;12.75;11.45;;;1.20;99.90;;;;;;5030547;28;20056;-67
2021/03/21 02:30:14;;;;;;;13.73;11.88;;;1.20;99.90;;;;;;5028183;28;20499;-68
2021/03/21 02:33:08;;;;;;;12.82;11.63;;;1.30;99.90;;;;;;5026435;28;20052;-68
2021/03/21 02:36:06;;;;;;;13.38;12.07;;;1.20;99.90;;;;;;5025761;28;20081;-68
2021/03/21 02:38:55;;;;;;;13.20;11.70;;;1.30;99.90;;;;;;5028506;28;20056;-68
2021/03/21 02:42:00;;;;;;;13.85;11.77;;;1.30;99.90;;;;;;5033023;28;20049;-69
2021/03/21 02:44:33;;;;;;;13.05;11.60;;;1.20;99.90;;;;;;5027066;28;20080;-69
2021/03/21 02:47:08;;;;;;;13.02;11.55;;;1.30;99.90;;;;;;5031885;28;20038;-68
2021/03/21 02:49:40;;;;;;;12.43;11.23;;;1.30;99.90;;;;;;5032862;28;20115;-68
2021/03/21 02:52:10;;;;;;;;;;;1.30;99.90;;;;;;5032056;28;20137;-68
2021/03/21 02:54:43;;;;;;;12.38;11.07;;;1.30;99.90;;;;;;5022535;28;20802;-67
2021/03/21 02:57:15;;;;;;;12.00;10.80;;;1.30;99.90;;;;;;5033213;28;20530;-69
2021/03/21 02:59:47;;;;;;;12.80;10.80;;;1.40;99.90;;;;;;5032333;28;20045;-68
2021/03/21 03:02:18;;;;;;;13.98;10.75;;;1.40;99.90;;;;;;5019248;28;20245;-68
2021/03/21 03:04:55;;;;;;;12.07;10.82;;;1.40;99.90;;;;;;5033076;28;20487;-68
2021/03/21 03:07:37;;;;;;;12.30;11.10;;;1.40;99.90;;;;;;5032553;28;20049;-68
2021/03/21 03:10:29;;;;;;;12.13;10.82;;;1.40;99.90;;;;;;5030461;28;20049;-68
2021/03/21 03:13:18;;;;;;;;;;;1.40;99.90;;;;;;5025950;28;20488;-68
2021/03/21 03:15:46;;;;;;;13.23;10.65;;;1.40;99.90;;;;;;5027845;28;20498;-70
2021/03/21 03:18:40;;;;;;;12.07;10.65;;;1.40;99.90;;;;;;5029807;28;20057;-69
2021/03/21 03:21:28;;;;;;;12.10;10.30;;;1.30;99.90;;;;;;5025784;28;20179;-68
2021/03/21 03:24:12;;;;;;;12.45;11.20;;;1.30;99.90;;;;;;5036805;28;20052;-70
2021/03/21 03:26:48;;;;;;;13.18;10.70;;;1.40;99.90;;;;;;5036201;28;20163;-69
2021/03/21 03:29:32;;;;;;;11.52;10.32;;;1.30;99.90;;;;;;5032219;28;20103;-68
2021/03/21 03:32:03;;;;;;;13.63;9.90;;;1.40;99.90;;;;;;5035702;28;20069;-68
2021/03/21 03:34:31;;;;;;;10.23;9.23;;;1.40;99.90;;;;;;5034736;28;20041;-69
2021/03/21 03:36:59;;;;;;;11.75;10.55;;;1.40;99.90;;;;;;5028702;28;20054;-68
2021/03/21 03:39:26;;;;;;;12.93;10.73;;;1.50;99.90;;;;;;5017945;28;20080;-69
2021/03/21 03:42:04;;;;;;;10.57;9.60;;;1.50;99.90;;;;;;5024239;28;20549;-69
2021/03/21 03:44:31;;;;;;;13.57;10.48;;;1.40;99.90;;;;;;5024952;28;20062;-69
2021/03/21 03:47:21;;;;;;;13.75;11.00;;;1.40;99.90;;;;;;5018985;28;20069;-69
2021/03/21 03:50:00;;;;;;;11.20;10.10;;;1.40;99.90;;;;;;5033752;28;20041;-68
2021/03/21 03:52:39;;;;;;;10.88;9.77;;;1.40;99.90;;;;;;5027082;28;20476;-68
2021/03/21 03:55:44;;;;;;;11.30;9.45;;;1.40;99.90;;;;;;5034857;28;20527;-67
2021/03/21 03:58:38;;;;;;;10.35;9.45;;;1.40;99.90;;;;;;5021860;28;20050;-69
2021/03/21 04:01:13;;;;;;;11.43;10.27;;;1.40;99.90;;;;;;5029720;28;20045;-68
2021/03/21 04:03:50;;;;;;;11.35;10.23;;;1.40;99.90;;;;;;5023658;28;20124;-69
2021/03/21 04:06:38;;;;;;;12.05;10.07;;;1.50;99.90;;;;;;5020352;28;20124;-68
2021/03/21 04:09:29;;;;;;;12.95;10.30;;;1.50;99.90;;;;;;5024260;28;20053;-68
2021/03/21 04:12:10;;;;;;;11.07;10.02;;;1.50;99.90;;;;;;5034446;28;20052;-68
2021/03/21 04:15:13;;;;;;;10.80;9.70;;;1.50;99.90;;;;;;5035435;28;20067;-68
2021/03/21 04:17:57;;;;;;;12.98;10.23;;;1.50;99.90;;;;;;5015352;28;20049;-69
2021/03/21 04:20:35;;;;;;;14.35;10.50;;;1.50;99.90;;;;;;5031898;28;20042;-67
2021/03/21 04:23:16;;;;;;;11.50;10.13;;;1.50;99.90;;;;;;5034788;28;20531;-67
2021/03/21 04:25:47;;;;;;;11.48;10.35;;;1.50;99.90;;;;;;5035096;28;20048;-68
2021/03/21 04:28:20;;;;;;;11.05;10.02;;;1.50;99.90;;;;;;5027924;28;20037;-68
2021/03/21 04:30:55;;;;;;;11.02;9.93;;;1.50;99.90;;;;;;5036249;28;20060;-66
2021/03/21 04:33:29;;;;;;;12.15;10.00;;;1.60;99.90;;;;;;5033292;28;20491;-68
2021/03/21 04:36:06;;;;;;;11.77;9.77;;;1.60;99.90;;;;;;5029529;28;20053;-68
2021/03/21 04:38:48;;;;;;;11.30;9.30;;;1.60;99.90;;;;;;5034885;28;20060;-67
2021/03/21 04:41:28;;;;;;;12.43;10.23;;;1.60;99.90;;;;;;5034690;28;20152;-69
2021/03/21 04:44:03;;;;;;;10.82;9.73;;;1.70;99.90;;;;;;5035498;28;20061;-72
2021/03/21 04:46:37;;;;;;;13.35;10.32;;;1.70;99.90;;;;;;5034511;28;20045;-69
2021/03/21 04:49:04;;;;;;;10.68;9.57;;;1.70;99.90;;;;;;5025819;28;20046;-69
2021/03/21 04:51:36;;;;;;;12.40;9.68;;;1.70;99.90;;;;;;5022713;28;20041;-70
2021/03/21 04:54:18;;;;;;;10.73;9.77;;;1.70;99.90;;;;;;5025258;28;20145;-67
2021/03/21 04:56:52;;;;;;;11.18;10.07;;;1.70;99.90;;;;;;5036588;28;20464;-68
2021/03/21 04:59:27;;;;;;;12.50;10.00;;;1.70;99.90;;;;;;5034281;28;20476;-68
2021/03/21 05:02:13;;;;;;;11.25;10.05;;;1.70;99.90;;;;;;5032467;28;20060;-69
2021/03/21 05:04:45;;;;;;;10.73;9.57;;;1.70;99.90;;;;;;5028449;28;20053;-68
2021/03/21 05:07:32;;;;;;;13.90;11.35;;;1.70;99.90;;;;;;5034525;28;20124;-69
2021/03/21 05:10:03;;;;;;;11.82;10.57;;;1.60;99.90;;;;;;5025290;28;20045;-69
2021/03/21 05:12:42;;;;;;;11.05;9.95;;;1.60;99.90;;;;;;5034274;28;20063;-69
2021/03/21 05:15:30;;;;;;;10.57;9.52;;;1.60;99.90;;;;;;5031950;28;20783;-69
2021/03/21 05:18:19;;;;;;;11.05;9.95;;;1.60;99.90;;;;;;5033766;28;20536;-67
2021/03/21 05:21:10;;;;;;;11.20;10.18;;;1.60;99.90;;;;;;5026581;28;20149;-68
2021/03/21 05:23:47;;;;;;;11.65;10.15;;;1.60;99.90;;;;;;5012469;28;20057;-68
2021/03/21 05:26:37;;;;;;;11.02;9.93;;;1.60;99.90;;;;;;5016883;28;20037;-68
2021/03/21 05:29:24;;;;;;;10.93;9.90;;;1.60;99.90;;;;;;5025677;28;20096;-68
2021/03/21 05:31:51;;;;;;;11.38;9.85;;;1.60;99.90;;;;;;5026220;28;20053;-69
2021/03/21 05:34:18;;;;;;;10.75;9.63;;;1.70;99.90;;;;;;5030590;28;20052;-67
2021/03/21 05:36:58;;;;;;;11.55;10.23;;;1.70;99.90;;;;;;5018999;28;20092;-67
2021/03/21 05:39:49;;;;;;;12.45;9.80;;;1.80;99.90;;;;;;5032520;28;20927;-67
2021/03/21 05:42:46;;;;;;;10.70;9.60;;;1.70;99.90;;;;;;5025807;28;20095;-69
2021/03/21 05:45:53;;;;;;;11.88;10.50;;;1.80;99.90;;;;;;5025259;28;20056;-67
2021/03/21 05:48:28;;;;;;;10.40;9.30;;;1.80;99.90;;;;;;5010395;28;20215;-69
2021/03/21 05:51:16;;;;;;;12.32;9.43;;;1.80;99.90;;;;;;5027534;28;20495;-68
2021/03/21 05:54:03;;;;;;;13.20;9.98;;;1.80;99.90;;;;;;5031556;28;20124;-68
2021/03/21 05:56:56;;;;;;;10.60;9.55;;;1.80;99.90;;;;;;5027520;28;20625;-68
2021/03/21 05:59:38;;;;;;;11.15;10.05;;;1.90;99.90;;;;;;5026939;28;20080;-68
2021/03/21 06:02:35;;;;;;;12.02;9.98;;;1.90;99.90;;;;;;5028600;28;20050;-68
2021/03/21 06:05:44;;;;;;;10.88;9.02;;;1.90;99.90;;;;;;5031757;28;20041;-68
2021/03/21 06:08:45;;;;;;;10.80;9.70;;;2.10;99.90;;;;;;5027673;28;20065;-69
2021/03/21 06:11:24;;;;;;;10.75;9.63;;;2.10;99.90;;;;;;5032273;28;20049;-68
2021/03/21 06:13:53;;;;;;;11.18;10.07;;;2.20;99.90;;;;;;5032706;28;20049;-69
2021/03/21 06:16:23;;;;;;;12.57;9.93;;;2.20;99.90;;;;;;5030776;28;20049;-69
2021/03/21 06:19:13;;;;;;;10.93;9.80;;;2.20;99.90;;;;;;5031504;28;20054;-68
2021/03/21 06:22:16;;;;;;;10.98;9.98;;;2.20;99.90;;;;;;5031595;28;20097;-68
2021/03/21 06:25:40;;;;;;;12.13;10.35;;;2.20;99.90;;;;;;5021995;28;20664;-69
2021/03/21 06:28:31;;;;;;;12.30;10.15;;;2.20;99.90;;;;;;5031280;28;20053;-68
2021/03/21 06:31:00;;;;;;;10.93;9.90;;;2.20;99.90;;;;;;5029327;28;20057;-68
2021/03/21 06:33:58;;;;;;;12.00;10.45;;;2.20;99.90;;;;;;5028543;28;20487;-69
2021/03/21 06:36:44;;;;;;;14.98;10.68;;;2.20;99.90;;;;;;5019523;28;20045;-69
2021/03/21 06:39:14;;;;;;;11.40;10.20;;;2.20;99.90;;;;;;5004839;28;20053;-67
2021/03/21 06:41:58;;;;;;;13.18;11.30;;;2.20;99.90;;;;;;5030444;28;20068;-67
2021/03/21 06:44:55;;;;;;;13.15;11.27;;;2.10;99.90;;;;;;5030943;28;20494;-69
2021/03/21 06:47:51;;;;;;;13.18;10.55;;;2.10;99.90;;;;;;5020962;28;20037;-69
2021/03/21 06:50:40;;;;;;;13.00;9.82;;;2.20;99.90;;;;;;5024290;28;20482;-68
2021/03/21 06:53:21;;;;;;;12.63;11.25;;;2.20;99.90;;;;;;5026532;28;20053;-69
2021/03/21 06:55:56;;;;;;;13.80;10.85;;;2.20;99.90;;;;;;5022117;28;20050;-67
2021/03/21 06:58:32;;;;;;;14.23;11.55;;;2.30;99.90;;;;;;5027900;28;20095;-69
2021/03/21 07:01:28;;;;;;;13.65;11.40;;;2.40;99.90;;;;;;5031832;28;20053;-69
2021/03/21 07:04:44;;;;;;;15.05;11.85;;;2.40;99.90;;;;;;5023538;28;20108;-68
2021/03/21 07:07:13;;;;;;;15.20;11.90;;;2.60;99.90;;;;;;5021398;28;20050;-69
2021/03/21 07:10:04;;;;;;;14.18;11.65;;;2.60;99.90;;;;;;5033453;28;20060;-68
2021/03/21 07:13:15;;;;;;;15.00;12.20;;;2.70;99.90;;;;;;5032353;28;20045;-68
2021/03/21 07:16:10;;;;;;;15.40;11.85;;;2.90;99.90;;;;;;5030869;28;20125;-68
2021/03/21 07:18:47;;;;;;;15.73;12.23;;;3.00;99.90;;;;;;5031124;28;20049;-68
2021/03/21 07:21:38;;;;;;;14.20;11.88;;;3.00;99.90;;;;;;5031126;28;20060;-68
2021/03/21 07:24:23;;;;;;;17.20;12.43;;;3.10;99.90;;;;;;5030977;28;20399;-68
2021/03/21 07:27:02;;;;;;;19.92;14.15;;;3.10;99.90;;;;;;5021453;28;20045;-70
2021/03/21 07:29:48;;;;;;;17.38;14.02;;;3.20;99.90;;;;;;5033022;28;20045;-67
2021/03/21 07:32:37;;;;;;;18.05;12.98;;;3.30;99.90;;;;;;5032050;28;20060;-67
2021/03/21 07:35:22;;;;;;;19.75;14.05;;;3.20;99.90;;;;;;5026973;28;20526;-68
2021/03/21 07:38:35;;;;;;;19.75;13.65;;;3.20;99.90;;;;;;5029727;28;20049;-68
2021/03/21 07:41:15;;;;;;;19.20;13.05;;;3.20;99.90;;;;;;5020452;28;20060;-68
2021/03/21 07:43:48;;;;;;;17.17;13.10;;;3.20;99.90;;;;;;5029621;28;20045;-67
2021/03/21 07:46:18;;;;;;;19.92;13.73;;;3.10;99.90;;;;;;5025990;28;20137;-67
2021/03/21 07:49:00;;;;;;;15.93;12.48;;;3.20;99.90;;;;;;5013824;28;20061;-67
2021/03/21 07:51:51;;;;;;;20.17;14.38;;;3.20;99.90;;;;;;5028295;28;20050;-67
2021/03/21 07:54:35;;;;;;;16.25;12.68;;;3.30;99.90;;;;;;5024845;28;20494;-67
2021/03/21 07:57:20;;;;;;;17.05;12.98;;;3.30;99.90;;;;;;5030286;28;20455;-68
2021/03/21 07:59:48;;;;;;;17.65;13.38;;;3.40;99.90;;;;;;5032547;28;20053;-68
2021/03/21 08:02:24;;;;;;;18.33;12.93;;;3.30;99.90;;;;;;5034744;28;20053;-68
2021/03/21 08:04:58;;;;;;;16.70;13.00;;;3.40;99.90;;;;;;5026286;28;20054;-69
2021/03/21 08:07:35;;;;;;;18.55;13.40;;;3.40;99.90;;;;;;5024676;28;20046;-67
2021/03/21 08:10:14;;;;;;;17.70;13.00;;;3.40;99.90;;;;;;5031021;28;20480;-69
2021/03/21 08:12:49;;;;;;;21.38;13.50;;;3.40;99.90;;;;;;5039024;28;20079;-68
2021/03/21 08:15:23;;;;;;;16.50;13.52;;;3.30;99.90;;;;;;5039478;28;20144;-67
2021/03/21 08:17:58;;;;;;;17.77;13.05;;;3.30;99.90;;;;;;5035466;28;20511;-69
2021/03/21 08:20:32;;;;;;;21.08;14.23;;;3.30;99.90;;;;;;5034469;28;20408;-67
2021/03/21 08:23:22;;;;;;;20.20;13.50;;;3.30;99.90;;;;;;5035767;28;20052;-68
2021/03/21 08:25:51;;;;;;;19.15;14.23;;;3.30;99.90;;;;;;5032761;28;20057;-68
2021/03/21 08:28:20;;;;;;;18.23;13.15;;;3.40;99.90;;;;;;5033768;28;20050;-67
2021/03/21 08:30:58;;;;;;;18.23;13.25;;;3.50;99.90;;;;;;5028550;28;20046;-68
2021/03/21 08:33:31;;;;;;;18.90;13.55;;;3.60;99.90;;;;;;5025856;28;20057;-67
2021/03/21 08:36:19;;;;;;;17.83;13.10;;;3.70;99.90;;;;;;5026442;28;20045;-67
2021/03/21 08:39:01;;;;;;;19.83;13.20;;;3.70;99.90;;;;;;5024532;28;20149;-67
2021/03/21 08:41:30;;;;;;;19.15;14.55;;;3.70;99.90;;;;;;5021661;28;20041;-68
2021/03/21 08:44:05;;;;;;;16.70;13.23;;;3.70;99.90;;;;;;5024079;28;20052;-67
2021/03/21 08:46:33;;;;;;;18.33;13.45;;;3.80;99.90;;;;;;5028151;28;20045;-70
2021/03/21 08:49:19;;;;;;;18.30;13.75;;;3.90;99.90;;;;;;5035872;28;20129;-70
2021/03/21 08:51:46;;;;;;;19.65;14.32;;;3.80;99.90;;;;;;5039352;28;20076;-70
2021/03/21 08:54:18;;;;;;;17.08;13.77;;;3.90;99.90;;;;;;5029117;28;20060;-68
2021/03/21 08:57:13;;;;;;;18.35;13.95;;;4.10;99.90;;;;;;5032664;28;20049;-68
2021/03/21 08:59:45;;;;;;;20.13;14.25;;;4.20;99.90;;;;;;5032870;28;20057;-69
2021/03/21 09:02:22;;;;;;;21.90;15.27;;;4.30;99.90;;;;;;5022689;28;20068;-68
2021/03/21 09:05:04;;;;;;;19.75;14.05;;;4.40;99.90;;;;;;5026254;28;20053;-68
2021/03/21 09:07:34;;;;;;;24.45;15.30;;;4.40;99.90;;;;;;5026401;28;20058;-69
2021/03/21 09:10:12;;;;;;;19.20;14.27;;;4.40;99.90;;;;;;5031682;28;20066;-68
2021/03/21 09:12:45;;;;;;;21.45;14.88;;;4.20;99.90;;;;;;5028119;28;20052;-68
2021/03/21 09:15:51;;;;;;;20.95;14.18;;;4.20;99.90;;;;;;5023530;28;20709;-69
2021/03/21 09:18:20;;;;;;;19.30;14.73;;;4.00;99.90;;;;;;5019037;28;20041;-67
2021/03/21 09:20:57;;;;;;;21.58;15.40;;;4.00;99.90;;;;;;5028634;28;20073;-69
2021/03/21 09:23:34;;;;;;;22.92;15.45;;;3.80;99.90;;;;;;5026586;28;20049;-69
2021/03/21 09:26:05;;;;;;;21.50;15.13;;;3.70;99.90;;;;;;5030390;28;20045;-69
2021/03/21 09:28:35;;;;;;;22.55;14.90;;;3.60;99.90;;;;;;5026123;28;20049;-67
2021/03/21 09:31:08;;;;;;;22.73;15.55;;;3.60;99.90;;;;;;5026230;28;20403;-68
2021/03/21 09:34:18;;;;;;;25.52;13.63;;;3.60;99.90;;;;;;5018667;28;20072;-68
2021/03/21 09:37:10;;;;;;;23.15;13.55;;;3.50;99.90;;;;;;5019209;28;20053;-68
2021/03/21 09:39:49;;;;;;;23.73;13.85;;;3.40;99.90;;;;;;5025565;28;20433;-69
2021/03/21 09:42:15;;;;;;;22.20;13.50;;;3.40;99.90;;;;;;5016081;28;20096;-70
2021/03/21 09:44:45;;;;;;;21.23;13.15;;;3.40;99.90;;;;;;5025808;28;20047;-69
2021/03/21 09:47:37;;;;;;;20.20;12.68;;;3.30;99.90;;;;;;5033105;28;20527;-68
2021/03/21 09:50:16;;;;;;;24.13;13.75;;;3.30;99.90;;;;;;5032668;28;20053;-67
2021/03/21 09:52:55;;;;;;;22.55;13.93;;;3.30;99.90;;;;;;5024867;28;20048;-68
2021/03/21 09:55:49;;;;;;;21.52;13.82;;;3.40;99.90;;;;;;5019436;28;20488;-68
2021/03/21 09:58:23;;;;;;;21.52;12.82;;;3.50;99.90;;;;;;5029296;28;20474;-67
2021/03/21 10:01:15;;;;;;;21.42;12.85;;;3.40;99.90;;;;;;5030303;28;20091;-68
2021/03/21 10:03:47;;;;;;;24.45;12.70;;;3.40;99.90;;;;;;5028005;28;20905;-68
2021/03/21 10:06:24;;;;;;;20.17;13.85;;;3.30;99.90;;;;;;5017499;28;20046;-68
2021/03/21 10:09:09;;;;;;;25.17;14.65;;;3.40;99.90;;;;;;5025727;28;20052;-68
2021/03/21 10:11:39;;;;;;;23.25;14.60;;;3.30;99.90;;;;;;5020567;28;20042;-68
2021/03/21 10:14:24;;;;;;;22.58;15.35;;;3.30;99.90;;;;;;5031094;28;20045;-69
2021/03/21 10:17:15;;;;;;;24.98;14.07;;;3.20;99.90;;;;;;5025540;28;20093;-69
2021/03/21 10:19:48;;;;;;;23.65;14.45;;;3.20;99.90;;;;;;5029803;28;20141;-67
2021/03/21 10:22:20;;;;;;;22.50;13.45;;;3.20;99.90;;;;;;5030609;28;20041;-69
2021/03/21 10:24:50;;;;;;;23.00;14.80;;;3.30;99.90;;;;;;5020150;28;20459;-68
2021/03/21 10:27:18;;;;;;;20.60;13.13;;;3.30;99.90;;;;;;5028962;28;20408;-68
2021/03/21 10:29:50;;;;;;;22.80;14.57;;;3.20;99.90;;;;;;5030761;28;20048;-69
2021/03/21 10:32:29;;;;;;;27.58;15.57;;;3.30;99.90;;;;;;5035177;28;20088;-69
2021/03/21 10:34:58;;;;;;;26.23;14.55;;;3.40;99.90;;;;;;5035716;28;20049;-68
2021/03/21 10:37:43;;;;;;;25.17;15.65;;;3.50;99.90;;;;;;5022134;28;20347;-71
2021/03/21 10:40:25;;;;;;;24.45;14.55;;;3.60;99.90;;;;;;5027926;28;20089;-69
2021/03/21 10:42:58;;;;;;;22.08;13.95;;;3.70;99.90;;;;;;5030834;28;20149;-69
2021/03/21 10:45:33;;;;;;;20.83;13.40;;;3.80;99.90;;;;;;5031025;28;20511;-67
2021/03/21 10:48:31;;;;;;;20.85;13.77;;;4.10;99.90;;;;;;5032181;28;20476;-67
2021/03/21 10:51:05;;;;;;;24.40;14.52;;;4.10;99.90;;;;;;5018365;28;20050;-67
2021/03/21 10:53:36;;;;;;;21.90;13.93;;;4.20;99.90;;;;;;5013606;28;20055;-69
2021/03/21 10:56:26;;;;;;;20.73;12.85;;;4.20;99.90;;;;;;5012537;28;20388;-69
2021/03/21 10:59:11;;;;;;;24.70;13.60;;;4.30;99.90;;;;;;5020234;28;20128;-66
2021/03/21 11:01:44;;;;;;;22.25;13.98;;;4.20;99.90;;;;;;5027279;28;20050;-69
2021/03/21 11:04:19;;;;;;;23.40;14.05;;;3.90;99.90;;;;;;5010875;28;20507;-68
2021/03/21 11:06:54;;;;;;;21.33;13.95;;;3.90;99.90;;;;;;5023023;28;20167;-69
2021/03/21 11:09:26;;;;;;;22.58;15.05;;;3.80;99.90;;;;;;5030505;28;20084;-68
2021/03/21 11:11:53;;;;;;;21.97;14.23;;;3.90;99.90;;;;;;5021707;28;20037;-68
2021/03/21 11:14:26;;;;;;;20.75;13.75;;;4.10;99.90;;;;;;5027786;28;20490;-69
2021/03/21 11:16:59;;;;;;;23.40;14.43;;;4.20;99.90;;;;;;5031660;28;20392;-68
2021/03/21 11:19:53;;;;;;;22.27;14.07;;;4.30;99.90;;;;;;5029578;28;20063;-68
2021/03/21 11:22:36;;;;;;;22.65;14.02;;;4.60;99.90;;;;;;5022883;28;20051;-67
2021/03/21 11:25:14;;;;;;;20.63;13.27;;;4.70;99.90;;;;;;5026805;28;20064;-67
2021/03/21 11:27:47;;;;;;;;;;;4.80;99.90;;;;;;5027979;28;20046;-69
2021/03/21 11:30:26;;;;;;;19.40;12.48;;;4.90;99.90;;;;;;5017964;28;19932;-69
2021/03/21 11:33:14;;;;;;;19.95;12.98;;;4.90;99.90;;;;;;5031507;28;20057;-68
2021/03/21 11:35:45;;;;;;;;;;;5.10;99.90;;;;;;5023066;28;20097;-69
2021/03/21 11:38:30;;;;;;;17.98;12.32;;;5.40;99.90;;;;;;5022391;28;20367;-68
2021/03/21 11:41:00;;;;;;;19.35;14.02;;;5.50;99.90;;;;;;5017277;28;20077;-68
2021/03/21 11:43:29;;;;;;;19.33;13.00;;;5.50;99.90;;;;;;5030157;28;20418;-69
2021/03/21 11:46:24;;;;;;;17.48;12.07;;;5.50;99.90;;;;;;5020868;28;20100;-67
2021/03/21 11:48:52;;;;;;;21.45;14.20;;;5.60;99.90;;;;;;5025302;28;20050;-69
2021/03/21 11:51:18;;;;;;;18.25;13.02;;;5.40;99.90;;;;;;5022735;28;20439;-69
2021/03/21 11:53:47;;;;;;;21.33;13.55;;;5.30;99.90;;;;;;5035280;28;20128;-68
2021/03/21 11:56:32;;;;;;;19.77;13.25;;;5.30;99.90;;;;;;5031303;28;20049;-69
2021/03/21 11:59:06;;;;;;;18.63;11.95;;;5.30;99.90;;;;;;5024806;28;20486;-69
2021/03/21 12:01:44;;;;;;;20.20;12.55;;;5.10;99.90;;;;;;5024475;28;20049;-69
2021/03/21 12:04:19;;;;;;;19.83;13.32;;;4.90;99.90;;;;;;5029407;28;20049;-70
2021/03/21 12:06:47;;;;;;;17.65;12.23;;;4.80;99.90;;;;;;5032241;28;20053;-69
2021/03/21 12:09:29;;;;;;;18.15;12.13;;;4.70;99.90;;;;;;5034984;28;20049;-69
2021/03/21 12:12:00;;;;;;;19.17;12.10;;;4.70;99.90;;;;;;5030857;28;20050;-70
2021/03/21 12:14:33;;;;;;;18.70;12.50;;;4.70;99.90;;;;;;5033243;28;20132;-69
2021/03/21 12:17:20;;;;;;;16.45;12.05;;;4.50;99.90;;;;;;5034961;28;20403;-68
2021/03/21 12:19:47;;;;;;;26.30;13.35;;;4.50;99.90;;;;;;5031389;28;20107;-68
2021/03/21 12:22:24;;;;;;;19.40;11.68;;;4.50;99.90;;;;;;5033791;28;20535;-67
2021/03/21 12:24:56;;;;;;;19.50;11.88;;;4.50;99.90;;;;;;5035414;28;20057;-68
2021/03/21 12:27:33;;;;;;;19.67;12.75;;;4.50;99.90;;;;;;5033961;28;20113;-68
2021/03/21 12:30:02;;;;;;;17.45;11.95;;;4.50;99.90;;;;;;5035456;28;20041;-67
2021/03/21 12:32:37;;;;;;;17.60;11.20;;;4.50;99.90;;;;;;5034415;28;20049;-69
2021/03/21 12:35:32;;;;;;;17.83;11.70;;;4.50;99.90;;;;;;5030397;28;20041;-69
2021/03/21 12:38:00;;;;;;;18.55;12.05;;;4.50;99.90;;;;;;5031310;28;20049;-69
2021/03/21 12:40:29;;;;;;;18.42;12.57;;;4.60;99.90;;;;;;5030418;28;20079;-69
2021/03/21 12:42:56;;;;;;;16.90;11.10;;;4.70;99.90;;;;;;5033235;28;20091;-67
2021/03/21 12:45:24;;;;;;;14.80;10.43;;;4.80;99.90;;;;;;5034345;28;20742;-68
2021/03/21 12:47:54;;;;;;;14.88;10.32;;;4.90;99.90;;;;;;5034458;28;20056;-69
2021/03/21 12:50:38;;;;;;;16.92;11.05;;;4.90;99.90;;;;;;5033889;28;20124;-66
2021/03/21 12:53:21;;;;;;;15.18;10.52;;;5.10;99.90;;;;;;5025733;28;20064;-67
2021/03/21 12:55:48;;;;;;;15.25;10.70;;;5.20;99.90;;;;;;5028680;28;20136;-67
2021/03/21 12:58:16;;;;;;;14.82;9.80;;;5.30;99.90;;;;;;5034188;28;20046;-69
2021/03/21 13:00:42;;;;;;;14.40;10.23;;;5.40;99.90;;;;;;5027500;28;20060;-68
2021/03/21 13:03:28;;;;;;;16.75;10.93;;;5.60;99.90;;;;;;5028903;28;20075;-69
2021/03/21 13:05:57;;;;;;;14.93;9.82;;;6.00;99.90;;;;;;5029406;28;20044;-69
2021/03/21 13:08:24;;;;;;;15.05;9.98;;;6.30;99.90;;;;;;5024286;28;20075;-69
2021/03/21 13:10:51;;;;;;;13.60;8.48;;;6.50;99.90;;;;;;5029526;28;20041;-67
2021/03/21 13:13:18;;;;;;;12.70;9.00;;;6.90;99.90;;;;;;5033612;28;20180;-69
2021/03/21 13:15:46;;;;;;;14.45;10.10;;;6.90;99.90;;;;;;5033365;28;20049;-69
2021/03/21 13:18:22;;;;;;;12.40;8.50;;;6.70;99.90;;;;;;5028266;28;20096;-69
2021/03/21 13:20:53;;;;;;;13.63;9.63;;;6.60;99.90;;;;;;5022872;28;20057;-69
2021/03/21 13:23:20;;;;;;;14.38;9.65;;;6.60;99.90;;;;;;5023351;28;20050;-69
2021/03/21 13:25:47;;;;;;;13.13;9.25;;;6.60;99.90;;;;;;5030174;28;20049;-68
2021/03/21 13:28:14;;;;;;;14.13;9.07;;;6.70;99.90;;;;;;5033397;28;20045;-68
2021/03/21 13:30:44;;;;;;;13.25;9.52;;;6.70;99.90;;;;;;5032885;28;20053;-69
2021/03/21 13:33:23;;;;;;;12.43;9.80;;;6.80;99.90;;;;;;5029054;28;20045;-67
2021/03/21 13:35:52;;;;;;;12.57;8.48;;;6.90;99.90;;;;;;5018446;28;20104;-68